sensor_id;sensor_type;location;lat;lon;timestamp;P1;durP1;ratioP1;P2;durP2;ratioP2
44606;SDS011;30315;46.072;14.474;2023-06-14T00:00:15;4.80;;;4.40;;
44606;SDS011;30315;46.072;14.474;2023-06-14T00:02:43;4.68;;;4.28;;
44606;SDS011;30315;46.072;14.474;2023-06-14T00:05:10;5.93;;;4.70;;
44606;SDS011;30315;46.072;14.474;2023-06-14T00:07:39;7.25;;;4.57;;
44606;SDS011;30315;46.072;14.474;2023-06-14T00:10:10;4.75;;;4.40;;
44606;SDS011;30315;46.072;14.474;2023-06-14T00:12:38;5.03;;;4.63;;
44606;SDS011;30315;46.072;14.474;2023-06-14T00:15:06;4.70;;;4.30;;
44606;SDS011;30315;46.072;14.474;2023-06-14T00:17:33;6.00;;;4.53;;
44606;SDS011;30315;46.072;14.474;2023-06-14T00:20:03;4.50;;;4.20;;
44606;SDS011;30315;46.072;14.474;2023-06-14T00:22:34;6.80;;;4.82;;
44606;SDS011;30315;46.072;14.474;2023-06-14T00:25:03;5.50;;;4.93;;
44606;SDS011;30315;46.072;14.474;2023-06-14T00:27:49;7.95;;;5.38;;
44606;SDS011;30315;46.072;14.474;2023-06-14T00:30:16;5.28;;;4.78;;
44606;SDS011;30315;46.072;14.474;2023-06-14T00:32:44;4.70;;;4.40;;
44606;SDS011;30315;46.072;14.474;2023-06-14T00:35:12;6.07;;;4.85;;
44606;SDS011;30315;46.072;14.474;2023-06-14T00:37:40;5.55;;;4.50;;
44606;SDS011;30315;46.072;14.474;2023-06-14T00:40:07;5.30;;;4.90;;
44606;SDS011;30315;46.072;14.474;2023-06-14T00:42:34;6.10;;;4.47;;
44606;SDS011;30315;46.072;14.474;2023-06-14T00:45:01;6.05;;;4.60;;
44606;SDS011;30315;46.072;14.474;2023-06-14T00:47:28;8.18;;;4.50;;
44606;SDS011;30315;46.072;14.474;2023-06-14T00:49:55;7.40;;;5.03;;
44606;SDS011;30315;46.072;14.474;2023-06-14T00:52:23;4.70;;;4.35;;
44606;SDS011;30315;46.072;14.474;2023-06-14T00:54:50;5.15;;;4.75;;
44606;SDS011;30315;46.072;14.474;2023-06-14T00:57:17;5.50;;;5.00;;
44606;SDS011;30315;46.072;14.474;2023-06-14T00:59:46;6.65;;;4.72;;
44606;SDS011;30315;46.072;14.474;2023-06-14T01:02:15;5.10;;;4.50;;
44606;SDS011;30315;46.072;14.474;2023-06-14T01:04:47;5.13;;;4.60;;
44606;SDS011;30315;46.072;14.474;2023-06-14T01:15:55;8.10;;;5.07;;
44606;SDS011;30315;46.072;14.474;2023-06-14T01:18:22;8.13;;;5.43;;
44606;SDS011;30315;46.072;14.474;2023-06-14T01:20:50;6.40;;;5.13;;
44606;SDS011;30315;46.072;14.474;2023-06-14T01:23:23;5.90;;;4.57;;
44606;SDS011;30315;46.072;14.474;2023-06-14T01:25:51;5.50;;;4.55;;
44606;SDS011;30315;46.072;14.474;2023-06-14T01:28:20;5.20;;;4.60;;
44606;SDS011;30315;46.072;14.474;2023-06-14T01:30:48;5.35;;;4.90;;
44606;SDS011;30315;46.072;14.474;2023-06-14T01:33:20;6.20;;;5.60;;
44606;SDS011;30315;46.072;14.474;2023-06-14T01:35:50;5.57;;;5.03;;
44606;SDS011;30315;46.072;14.474;2023-06-14T01:38:19;7.47;;;4.90;;
44606;SDS011;30315;46.072;14.474;2023-06-14T01:40:51;5.40;;;4.95;;
44606;SDS011;30315;46.072;14.474;2023-06-14T01:43:24;5.47;;;4.97;;
44606;SDS011;30315;46.072;14.474;2023-06-14T01:45:53;5.68;;;5.10;;
44606;SDS011;30315;46.072;14.474;2023-06-14T01:48:22;6.18;;;5.55;;
44606;SDS011;30315;46.072;14.474;2023-06-14T01:50:50;7.70;;;5.10;;
44606;SDS011;30315;46.072;14.474;2023-06-14T01:53:19;5.60;;;5.15;;
44606;SDS011;30315;46.072;14.474;2023-06-14T01:55:46;6.15;;;5.07;;
44606;SDS011;30315;46.072;14.474;2023-06-14T01:58:15;6.40;;;5.18;;
44606;SDS011;30315;46.072;14.474;2023-06-14T02:00:43;8.35;;;5.07;;
44606;SDS011;30315;46.072;14.474;2023-06-14T02:03:10;5.25;;;4.85;;
44606;SDS011;30315;46.072;14.474;2023-06-14T02:05:38;5.55;;;5.10;;
44606;SDS011;30315;46.072;14.474;2023-06-14T02:08:06;5.80;;;4.70;;
44606;SDS011;30315;46.072;14.474;2023-06-14T02:10:33;6.38;;;5.50;;
44606;SDS011;30315;46.072;14.474;2023-06-14T02:13:02;6.13;;;5.28;;
44606;SDS011;30315;46.072;14.474;2023-06-14T02:15:29;5.03;;;4.63;;
44606;SDS011;30315;46.072;14.474;2023-06-14T02:18:04;7.47;;;5.35;;
44606;SDS011;30315;46.072;14.474;2023-06-14T02:23:35;8.90;;;5.80;;
44606;SDS011;30315;46.072;14.474;2023-06-14T02:26:02;6.35;;;5.35;;
44606;SDS011;30315;46.072;14.474;2023-06-14T02:28:29;5.82;;;4.97;;
44606;SDS011;30315;46.072;14.474;2023-06-14T02:30:56;5.82;;;5.20;;
44606;SDS011;30315;46.072;14.474;2023-06-14T02:33:23;5.65;;;5.10;;
44606;SDS011;30315;46.072;14.474;2023-06-14T02:35:51;5.50;;;5.10;;
44606;SDS011;30315;46.072;14.474;2023-06-14T02:38:19;6.93;;;5.07;;
44606;SDS011;30315;46.072;14.474;2023-06-14T02:40:47;5.70;;;4.82;;
44606;SDS011;30315;46.072;14.474;2023-06-14T02:43:14;5.15;;;4.72;;
44606;SDS011;30315;46.072;14.474;2023-06-14T02:45:43;7.10;;;5.07;;
44606;SDS011;30315;46.072;14.474;2023-06-14T02:48:10;5.05;;;4.57;;
44606;SDS011;30315;46.072;14.474;2023-06-14T02:50:39;5.43;;;5.00;;
44606;SDS011;30315;46.072;14.474;2023-06-14T02:53:06;9.45;;;5.35;;
44606;SDS011;30315;46.072;14.474;2023-06-14T02:55:35;6.00;;;5.28;;
44606;SDS011;30315;46.072;14.474;2023-06-14T02:58:06;5.70;;;5.20;;
44606;SDS011;30315;46.072;14.474;2023-06-14T03:00:33;9.63;;;4.70;;
44606;SDS011;30315;46.072;14.474;2023-06-14T03:03:01;5.28;;;4.78;;
44606;SDS011;30315;46.072;14.474;2023-06-14T03:05:29;5.32;;;4.82;;
44606;SDS011;30315;46.072;14.474;2023-06-14T03:07:56;8.52;;;5.47;;
44606;SDS011;30315;46.072;14.474;2023-06-14T03:10:24;5.90;;;4.63;;
44606;SDS011;30315;46.072;14.474;2023-06-14T03:12:52;7.85;;;5.55;;
44606;SDS011;30315;46.072;14.474;2023-06-14T03:15:20;6.43;;;4.40;;
44606;SDS011;30315;46.072;14.474;2023-06-14T03:17:50;7.47;;;4.88;;
44606;SDS011;30315;46.072;14.474;2023-06-14T03:22:47;8.35;;;5.28;;
44606;SDS011;30315;46.072;14.474;2023-06-14T03:25:14;5.43;;;4.93;;
44606;SDS011;30315;46.072;14.474;2023-06-14T03:27:44;6.78;;;4.95;;
44606;SDS011;30315;46.072;14.474;2023-06-14T03:30:11;5.53;;;4.95;;
44606;SDS011;30315;46.072;14.474;2023-06-14T03:35:08;5.10;;;4.70;;
44606;SDS011;30315;46.072;14.474;2023-06-14T03:37:36;5.17;;;4.77;;
44606;SDS011;30315;46.072;14.474;2023-06-14T03:40:03;7.05;;;5.03;;
44606;SDS011;30315;46.072;14.474;2023-06-14T03:42:37;5.25;;;4.85;;
44606;SDS011;30315;46.072;14.474;2023-06-14T03:45:05;7.18;;;5.28;;
44606;SDS011;30315;46.072;14.474;2023-06-14T03:47:33;7.90;;;5.93;;
44606;SDS011;30315;46.072;14.474;2023-06-14T03:50:02;5.93;;;5.40;;
44606;SDS011;30315;46.072;14.474;2023-06-14T03:52:30;5.90;;;5.40;;
44606;SDS011;30315;46.072;14.474;2023-06-14T03:54:57;6.80;;;5.28;;
44606;SDS011;30315;46.072;14.474;2023-06-14T03:57:30;8.43;;;5.18;;
44606;SDS011;30315;46.072;14.474;2023-06-14T03:59:58;8.32;;;5.10;;
44606;SDS011;30315;46.072;14.474;2023-06-14T04:02:26;5.75;;;5.15;;
44606;SDS011;30315;46.072;14.474;2023-06-14T04:04:55;5.00;;;4.60;;
44606;SDS011;30315;46.072;14.474;2023-06-14T04:07:22;6.15;;;5.22;;
44606;SDS011;30315;46.072;14.474;2023-06-14T04:09:49;5.68;;;5.18;;
44606;SDS011;30315;46.072;14.474;2023-06-14T04:12:17;7.85;;;4.97;;
44606;SDS011;30315;46.072;14.474;2023-06-14T04:14:44;5.72;;;5.22;;
44606;SDS011;30315;46.072;14.474;2023-06-14T04:17:11;6.22;;;5.43;;
44606;SDS011;30315;46.072;14.474;2023-06-14T04:19:42;6.07;;;5.57;;
44606;SDS011;30315;46.072;14.474;2023-06-14T04:22:09;5.70;;;5.30;;
44606;SDS011;30315;46.072;14.474;2023-06-14T04:24:38;6.63;;;5.63;;
44606;SDS011;30315;46.072;14.474;2023-06-14T04:27:05;6.28;;;5.40;;
44606;SDS011;30315;46.072;14.474;2023-06-14T04:29:35;5.47;;;5.00;;
44606;SDS011;30315;46.072;14.474;2023-06-14T04:32:05;5.25;;;4.78;;
44606;SDS011;30315;46.072;14.474;2023-06-14T04:34:37;6.65;;;5.65;;
44606;SDS011;30315;46.072;14.474;2023-06-14T04:37:07;6.70;;;5.50;;
44606;SDS011;30315;46.072;14.474;2023-06-14T04:39:37;5.88;;;5.03;;
44606;SDS011;30315;46.072;14.474;2023-06-14T04:42:04;7.43;;;5.10;;
44606;SDS011;30315;46.072;14.474;2023-06-14T04:44:34;8.25;;;5.63;;
44606;SDS011;30315;46.072;14.474;2023-06-14T04:47:03;5.93;;;5.38;;
44606;SDS011;30315;46.072;14.474;2023-06-14T04:49:30;6.90;;;5.47;;
44606;SDS011;30315;46.072;14.474;2023-06-14T04:51:59;5.93;;;5.35;;
44606;SDS011;30315;46.072;14.474;2023-06-14T04:54:33;5.38;;;4.97;;
44606;SDS011;30315;46.072;14.474;2023-06-14T04:57:07;6.78;;;5.28;;
44606;SDS011;30315;46.072;14.474;2023-06-14T04:59:41;6.50;;;5.47;;
44606;SDS011;30315;46.072;14.474;2023-06-14T05:02:10;6.37;;;5.73;;
44606;SDS011;30315;46.072;14.474;2023-06-14T05:04:38;8.23;;;6.43;;
44606;SDS011;30315;46.072;14.474;2023-06-14T05:07:07;7.50;;;5.73;;
44606;SDS011;30315;46.072;14.474;2023-06-14T05:09:35;6.10;;;5.60;;
44606;SDS011;30315;46.072;14.474;2023-06-14T05:12:03;6.43;;;5.85;;
44606;SDS011;30315;46.072;14.474;2023-06-14T05:14:30;7.30;;;5.90;;
44606;SDS011;30315;46.072;14.474;2023-06-14T05:16:57;6.85;;;6.03;;
44606;SDS011;30315;46.072;14.474;2023-06-14T05:19:24;7.63;;;6.22;;
44606;SDS011;30315;46.072;14.474;2023-06-14T05:21:51;7.00;;;6.30;;
44606;SDS011;30315;46.072;14.474;2023-06-14T05:24:19;8.23;;;5.78;;
44606;SDS011;30315;46.072;14.474;2023-06-14T05:26:46;6.68;;;5.22;;
44606;SDS011;30315;46.072;14.474;2023-06-14T05:29:13;6.47;;;5.70;;
44606;SDS011;30315;46.072;14.474;2023-06-14T05:31:40;7.00;;;6.35;;
44606;SDS011;30315;46.072;14.474;2023-06-14T05:34:07;6.10;;;5.45;;
44606;SDS011;30315;46.072;14.474;2023-06-14T05:36:34;6.18;;;5.65;;
44606;SDS011;30315;46.072;14.474;2023-06-14T05:39:03;7.83;;;5.30;;
44606;SDS011;30315;46.072;14.474;2023-06-14T05:41:31;6.07;;;5.57;;
44606;SDS011;30315;46.072;14.474;2023-06-14T05:43:58;5.68;;;5.20;;
44606;SDS011;30315;46.072;14.474;2023-06-14T05:46:26;6.68;;;5.80;;
44606;SDS011;30315;46.072;14.474;2023-06-14T05:48:55;8.20;;;5.45;;
44606;SDS011;30315;46.072;14.474;2023-06-14T05:51:22;8.00;;;6.03;;
44606;SDS011;30315;46.072;14.474;2023-06-14T05:56:19;6.68;;;5.93;;
44606;SDS011;30315;46.072;14.474;2023-06-14T05:58:46;9.02;;;6.13;;
44606;SDS011;30315;46.072;14.474;2023-06-14T06:01:13;7.65;;;5.40;;
44606;SDS011;30315;46.072;14.474;2023-06-14T06:03:41;8.75;;;6.00;;
44606;SDS011;30315;46.072;14.474;2023-06-14T06:06:12;9.63;;;5.53;;
44606;SDS011;30315;46.072;14.474;2023-06-14T06:08:40;5.70;;;5.20;;
44606;SDS011;30315;46.072;14.474;2023-06-14T06:11:07;5.85;;;4.95;;
44606;SDS011;30315;46.072;14.474;2023-06-14T06:13:34;5.22;;;4.80;;
44606;SDS011;30315;46.072;14.474;2023-06-14T06:16:02;5.80;;;5.30;;
44606;SDS011;30315;46.072;14.474;2023-06-14T06:18:30;7.47;;;6.72;;
44606;SDS011;30315;46.072;14.474;2023-06-14T06:20:57;5.97;;;5.53;;
44606;SDS011;30315;46.072;14.474;2023-06-14T06:23:24;5.53;;;4.63;;
44606;SDS011;30315;46.072;14.474;2023-06-14T06:25:51;4.80;;;4.40;;
44606;SDS011;30315;46.072;14.474;2023-06-14T06:28:18;5.50;;;4.32;;
44606;SDS011;30315;46.072;14.474;2023-06-14T06:30:45;5.82;;;4.43;;
44606;SDS011;30315;46.072;14.474;2023-06-14T06:33:12;4.45;;;4.10;;
44606;SDS011;30315;46.072;14.474;2023-06-14T06:35:40;6.47;;;4.55;;
44606;SDS011;30315;46.072;14.474;2023-06-14T06:38:07;6.88;;;5.18;;
44606;SDS011;30315;46.072;14.474;2023-06-14T06:40:36;6.23;;;3.97;;
44606;SDS011;30315;46.072;14.474;2023-06-14T06:43:03;4.93;;;4.30;;
44606;SDS011;30315;46.072;14.474;2023-06-14T06:45:38;8.30;;;4.38;;
44606;SDS011;30315;46.072;14.474;2023-06-14T06:50:36;7.53;;;4.43;;
44606;SDS011;30315;46.072;14.474;2023-06-14T06:53:04;8.65;;;4.60;;
44606;SDS011;30315;46.072;14.474;2023-06-14T06:55:32;4.75;;;4.40;;
44606;SDS011;30315;46.072;14.474;2023-06-14T06:58:00;6.70;;;4.65;;
44606;SDS011;30315;46.072;14.474;2023-06-14T07:00:26;4.90;;;4.50;;
44606;SDS011;30315;46.072;14.474;2023-06-14T07:02:54;4.60;;;4.30;;
44606;SDS011;30315;46.072;14.474;2023-06-14T07:05:21;4.88;;;4.00;;
44606;SDS011;30315;46.072;14.474;2023-06-14T07:07:48;4.40;;;3.25;;
44606;SDS011;30315;46.072;14.474;2023-06-14T07:10:15;4.90;;;4.00;;
44606;SDS011;30315;46.072;14.474;2023-06-14T07:12:42;4.00;;;3.70;;
44606;SDS011;30315;46.072;14.474;2023-06-14T07:15:09;3.85;;;3.55;;
44606;SDS011;30315;46.072;14.474;2023-06-14T07:17:37;3.72;;;3.42;;
44606;SDS011;30315;46.072;14.474;2023-06-14T07:20:04;3.58;;;3.20;;
44606;SDS011;30315;46.072;14.474;2023-06-14T07:22:38;4.22;;;3.85;;
44606;SDS011;30315;46.072;14.474;2023-06-14T07:25:08;4.18;;;3.70;;
44606;SDS011;30315;46.072;14.474;2023-06-14T07:27:36;3.60;;;3.30;;
44606;SDS011;30315;46.072;14.474;2023-06-14T07:30:03;3.83;;;3.55;;
44606;SDS011;30315;46.072;14.474;2023-06-14T07:32:30;3.80;;;3.28;;
44606;SDS011;30315;46.072;14.474;2023-06-14T07:34:57;6.00;;;3.83;;
44606;SDS011;30315;46.072;14.474;2023-06-14T07:37:24;4.35;;;3.92;;
44606;SDS011;30315;46.072;14.474;2023-06-14T07:39:51;3.92;;;3.53;;
44606;SDS011;30315;46.072;14.474;2023-06-14T07:42:18;3.30;;;3.10;;
44606;SDS011;30315;46.072;14.474;2023-06-14T07:44:45;4.07;;;3.67;;
44606;SDS011;30315;46.072;14.474;2023-06-14T07:47:12;3.80;;;3.50;;
44606;SDS011;30315;46.072;14.474;2023-06-14T07:49:39;4.30;;;3.90;;
44606;SDS011;30315;46.072;14.474;2023-06-14T07:52:06;5.82;;;3.90;;
44606;SDS011;30315;46.072;14.474;2023-06-14T07:54:33;4.70;;;4.18;;
44606;SDS011;30315;46.072;14.474;2023-06-14T07:57:00;4.13;;;3.83;;
44606;SDS011;30315;46.072;14.474;2023-06-14T07:59:27;3.78;;;3.47;;
44606;SDS011;30315;46.072;14.474;2023-06-14T08:01:54;4.07;;;3.78;;
44606;SDS011;30315;46.072;14.474;2023-06-14T08:04:21;4.75;;;3.50;;
44606;SDS011;30315;46.072;14.474;2023-06-14T08:06:48;3.53;;;3.25;;
44606;SDS011;30315;46.072;14.474;2023-06-14T08:09:15;3.97;;;3.65;;
44606;SDS011;30315;46.072;14.474;2023-06-14T08:11:42;3.97;;;3.60;;
44606;SDS011;30315;46.072;14.474;2023-06-14T08:14:09;4.13;;;3.83;;
44606;SDS011;30315;46.072;14.474;2023-06-14T08:16:37;3.97;;;3.60;;
44606;SDS011;30315;46.072;14.474;2023-06-14T08:19:04;3.22;;;3.03;;
44606;SDS011;30315;46.072;14.474;2023-06-14T08:21:31;3.92;;;3.58;;
44606;SDS011;30315;46.072;14.474;2023-06-14T08:23:59;2.97;;;2.78;;
44606;SDS011;30315;46.072;14.474;2023-06-14T08:26:27;3.97;;;3.70;;
44606;SDS011;30315;46.072;14.474;2023-06-14T08:28:55;3.80;;;3.40;;
44606;SDS011;30315;46.072;14.474;2023-06-14T08:31:23;3.40;;;3.20;;
44606;SDS011;30315;46.072;14.474;2023-06-14T08:33:51;5.30;;;3.30;;
44606;SDS011;30315;46.072;14.474;2023-06-14T08:36:18;3.25;;;2.95;;
44606;SDS011;30315;46.072;14.474;2023-06-14T08:38:46;3.60;;;3.30;;
44606;SDS011;30315;46.072;14.474;2023-06-14T08:41:12;3.70;;;3.35;;
44606;SDS011;30315;46.072;14.474;2023-06-14T08:43:53;3.72;;;3.42;;
44606;SDS011;30315;46.072;14.474;2023-06-14T08:46:20;3.38;;;3.17;;
44606;SDS011;30315;46.072;14.474;2023-06-14T08:48:49;3.40;;;3.20;;
44606;SDS011;30315;46.072;14.474;2023-06-14T08:51:20;3.53;;;3.20;;
44606;SDS011;30315;46.072;14.474;2023-06-14T08:53:51;3.45;;;3.25;;
44606;SDS011;30315;46.072;14.474;2023-06-14T08:56:20;3.50;;;3.20;;
44606;SDS011;30315;46.072;14.474;2023-06-14T08:58:48;4.13;;;3.65;;
44606;SDS011;30315;46.072;14.474;2023-06-14T09:01:16;3.90;;;3.53;;
44606;SDS011;30315;46.072;14.474;2023-06-14T09:03:43;3.85;;;3.55;;
44606;SDS011;30315;46.072;14.474;2023-06-14T09:06:11;3.33;;;3.05;;
44606;SDS011;30315;46.072;14.474;2023-06-14T09:08:42;4.10;;;3.70;;
44606;SDS011;30315;46.072;14.474;2023-06-14T09:11:13;6.28;;;3.70;;
44606;SDS011;30315;46.072;14.474;2023-06-14T09:13:42;4.25;;;3.63;;
44606;SDS011;30315;46.072;14.474;2023-06-14T09:16:09;3.90;;;3.50;;
44606;SDS011;30315;46.072;14.474;2023-06-14T09:18:40;3.35;;;3.15;;
44606;SDS011;30315;46.072;14.474;2023-06-14T09:21:12;3.33;;;3.05;;
44606;SDS011;30315;46.072;14.474;2023-06-14T09:23:40;4.25;;;3.85;;
44606;SDS011;30315;46.072;14.474;2023-06-14T09:26:13;4.28;;;3.78;;
44606;SDS011;30315;46.072;14.474;2023-06-14T09:28:44;4.15;;;3.45;;
44606;SDS011;30315;46.072;14.474;2023-06-14T09:31:13;6.22;;;3.72;;
44606;SDS011;30315;46.072;14.474;2023-06-14T09:33:42;3.78;;;3.47;;
44606;SDS011;30315;46.072;14.474;2023-06-14T09:36:21;3.95;;;3.65;;
44606;SDS011;30315;46.072;14.474;2023-06-14T09:44:02;3.80;;;3.50;;
44606;SDS011;30315;46.072;14.474;2023-06-14T09:46:34;3.00;;;2.80;;
44606;SDS011;30315;46.072;14.474;2023-06-14T09:49:02;4.50;;;3.83;;
44606;SDS011;30315;46.072;14.474;2023-06-14T09:51:31;3.67;;;3.38;;
44606;SDS011;30315;46.072;14.474;2023-06-14T09:53:58;3.30;;;3.10;;
44606;SDS011;30315;46.072;14.474;2023-06-14T09:56:28;3.42;;;3.13;;
44606;SDS011;30315;46.072;14.474;2023-06-14T09:58:57;3.85;;;3.53;;
44606;SDS011;30315;46.072;14.474;2023-06-14T10:01:34;5.18;;;3.33;;
44606;SDS011;30315;46.072;14.474;2023-06-14T10:04:06;3.90;;;3.60;;
44606;SDS011;30315;46.072;14.474;2023-06-14T10:06:39;4.32;;;3.80;;
44606;SDS011;30315;46.072;14.474;2023-06-14T10:09:08;4.00;;;3.75;;
44606;SDS011;30315;46.072;14.474;2023-06-14T10:11:36;4.78;;;3.42;;
44606;SDS011;30315;46.072;14.474;2023-06-14T10:14:10;3.50;;;3.20;;
44606;SDS011;30315;46.072;14.474;2023-06-14T10:16:42;3.80;;;3.50;;
44606;SDS011;30315;46.072;14.474;2023-06-14T10:19:27;3.10;;;2.90;;
44606;SDS011;30315;46.072;14.474;2023-06-14T10:22:09;3.83;;;3.53;;
44606;SDS011;30315;46.072;14.474;2023-06-14T10:24:44;4.72;;;3.97;;
44606;SDS011;30315;46.072;14.474;2023-06-14T10:27:15;4.00;;;3.65;;
44606;SDS011;30315;46.072;14.474;2023-06-14T10:32:20;3.80;;;3.38;;
44606;SDS011;30315;46.072;14.474;2023-06-14T10:34:56;4.15;;;3.38;;
44606;SDS011;30315;46.072;14.474;2023-06-14T10:37:25;4.25;;;3.85;;
44606;SDS011;30315;46.072;14.474;2023-06-14T10:39:52;4.93;;;3.75;;
44606;SDS011;30315;46.072;14.474;2023-06-14T10:42:23;7.15;;;3.28;;
44606;SDS011;30315;46.072;14.474;2023-06-14T10:44:58;3.80;;;3.50;;
44606;SDS011;30315;46.072;14.474;2023-06-14T10:47:26;3.72;;;3.05;;
44606;SDS011;30315;46.072;14.474;2023-06-14T10:49:56;5.05;;;3.72;;
44606;SDS011;30315;46.072;14.474;2023-06-14T10:52:31;3.63;;;2.88;;
44606;SDS011;30315;46.072;14.474;2023-06-14T10:57:44;3.58;;;3.28;;
44606;SDS011;30315;46.072;14.474;2023-06-14T11:00:25;3.70;;;3.08;;
44606;SDS011;30315;46.072;14.474;2023-06-14T11:11:24;3.33;;;2.85;;
44606;SDS011;30315;46.072;14.474;2023-06-14T11:14:00;3.50;;;3.10;;
44606;SDS011;30315;46.072;14.474;2023-06-14T11:16:28;3.47;;;3.28;;
44606;SDS011;30315;46.072;14.474;2023-06-14T11:18:55;5.30;;;3.45;;
44606;SDS011;30315;46.072;14.474;2023-06-14T11:21:23;3.50;;;3.20;;
44606;SDS011;30315;46.072;14.474;2023-06-14T11:23:51;3.28;;;2.97;;
44606;SDS011;30315;46.072;14.474;2023-06-14T11:26:26;3.15;;;2.95;;
44606;SDS011;30315;46.072;14.474;2023-06-14T11:28:58;3.67;;;2.92;;
44606;SDS011;30315;46.072;14.474;2023-06-14T11:31:26;3.35;;;2.85;;
44606;SDS011;30315;46.072;14.474;2023-06-14T11:36:26;4.40;;;3.58;;
44606;SDS011;30315;46.072;14.474;2023-06-14T11:39:00;3.38;;;3.08;;
44606;SDS011;30315;46.072;14.474;2023-06-14T11:41:36;3.30;;;3.10;;
44606;SDS011;30315;46.072;14.474;2023-06-14T11:44:04;4.03;;;3.28;;
44606;SDS011;30315;46.072;14.474;2023-06-14T11:46:32;3.60;;;3.30;;
44606;SDS011;30315;46.072;14.474;2023-06-14T11:48:59;3.50;;;3.20;;
44606;SDS011;30315;46.072;14.474;2023-06-14T11:51:30;3.40;;;3.10;;
44606;SDS011;30315;46.072;14.474;2023-06-14T11:56:27;5.38;;;3.60;;
44606;SDS011;30315;46.072;14.474;2023-06-14T11:58:54;4.03;;;3.22;;
44606;SDS011;30315;46.072;14.474;2023-06-14T12:01:23;3.30;;;3.10;;
44606;SDS011;30315;46.072;14.474;2023-06-14T12:03:50;3.53;;;3.13;;
44606;SDS011;30315;46.072;14.474;2023-06-14T12:06:29;3.92;;;3.20;;
44606;SDS011;30315;46.072;14.474;2023-06-14T12:09:05;4.32;;;3.25;;
44606;SDS011;30315;46.072;14.474;2023-06-14T12:11:37;3.88;;;2.97;;
44606;SDS011;30315;46.072;14.474;2023-06-14T12:14:04;3.47;;;3.20;;
44606;SDS011;30315;46.072;14.474;2023-06-14T12:16:33;3.15;;;2.95;;
44606;SDS011;30315;46.072;14.474;2023-06-14T12:19:09;5.05;;;3.17;;
44606;SDS011;30315;46.072;14.474;2023-06-14T12:21:46;3.22;;;2.90;;
44606;SDS011;30315;46.072;14.474;2023-06-14T12:24:17;5.90;;;3.60;;
44606;SDS011;30315;46.072;14.474;2023-06-14T12:26:44;3.10;;;2.90;;
44606;SDS011;30315;46.072;14.474;2023-06-14T12:29:12;3.85;;;3.55;;
44606;SDS011;30315;46.072;14.474;2023-06-14T12:31:39;3.20;;;3.00;;
44606;SDS011;30315;46.072;14.474;2023-06-14T12:34:07;3.63;;;3.20;;
44606;SDS011;30315;46.072;14.474;2023-06-14T12:36:34;3.55;;;3.08;;
44606;SDS011;30315;46.072;14.474;2023-06-14T12:39:07;3.50;;;3.17;;
44606;SDS011;30315;46.072;14.474;2023-06-14T12:41:35;3.40;;;2.92;;
44606;SDS011;30315;46.072;14.474;2023-06-14T12:44:03;3.40;;;3.20;;
44606;SDS011;30315;46.072;14.474;2023-06-14T12:46:31;3.78;;;3.40;;
44606;SDS011;30315;46.072;14.474;2023-06-14T12:48:58;3.58;;;3.30;;
44606;SDS011;30315;46.072;14.474;2023-06-14T12:51:26;3.50;;;3.22;;
44606;SDS011;30315;46.072;14.474;2023-06-14T12:53:53;4.40;;;2.90;;
44606;SDS011;30315;46.072;14.474;2023-06-14T12:56:20;4.60;;;3.40;;
44606;SDS011;30315;46.072;14.474;2023-06-14T12:58:50;3.42;;;3.22;;
44606;SDS011;30315;46.072;14.474;2023-06-14T13:01:17;3.35;;;3.08;;
44606;SDS011;30315;46.072;14.474;2023-06-14T13:03:46;3.55;;;3.25;;
44606;SDS011;30315;46.072;14.474;2023-06-14T13:06:13;3.50;;;3.30;;
44606;SDS011;30315;46.072;14.474;2023-06-14T13:08:40;3.35;;;3.15;;
44606;SDS011;30315;46.072;14.474;2023-06-14T13:11:07;3.47;;;3.17;;
44606;SDS011;30315;46.072;14.474;2023-06-14T13:13:34;5.40;;;4.05;;
44606;SDS011;30315;46.072;14.474;2023-06-14T13:16:01;3.75;;;3.15;;
44606;SDS011;30315;46.072;14.474;2023-06-14T13:18:29;3.70;;;3.50;;
44606;SDS011;30315;46.072;14.474;2023-06-14T13:20:56;5.57;;;3.80;;
44606;SDS011;30315;46.072;14.474;2023-06-14T13:23:23;4.60;;;4.20;;
44606;SDS011;30315;46.072;14.474;2023-06-14T13:25:50;3.53;;;3.22;;
44606;SDS011;30315;46.072;14.474;2023-06-14T13:28:17;3.28;;;2.97;;
44606;SDS011;30315;46.072;14.474;2023-06-14T13:30:44;3.67;;;3.38;;
44606;SDS011;30315;46.072;14.474;2023-06-14T13:33:11;3.25;;;3.05;;
44606;SDS011;30315;46.072;14.474;2023-06-14T13:35:39;3.75;;;3.55;;
44606;SDS011;30315;46.072;14.474;2023-06-14T13:38:06;3.50;;;3.20;;
44606;SDS011;30315;46.072;14.474;2023-06-14T13:40:34;4.05;;;3.65;;
44606;SDS011;30315;46.072;14.474;2023-06-14T13:43:01;3.53;;;3.33;;
44606;SDS011;30315;46.072;14.474;2023-06-14T13:45:28;3.45;;;3.25;;
44606;SDS011;30315;46.072;14.474;2023-06-14T13:47:55;3.55;;;3.30;;
44606;SDS011;30315;46.072;14.474;2023-06-14T13:50:22;3.28;;;3.08;;
44606;SDS011;30315;46.072;14.474;2023-06-14T13:52:49;3.92;;;3.53;;
44606;SDS011;30315;46.072;14.474;2023-06-14T13:55:16;3.50;;;3.30;;
44606;SDS011;30315;46.072;14.474;2023-06-14T13:57:43;3.60;;;3.30;;
44606;SDS011;30315;46.072;14.474;2023-06-14T14:00:12;3.35;;;3.15;;
44606;SDS011;30315;46.072;14.474;2023-06-14T14:02:40;4.38;;;3.92;;
44606;SDS011;30315;46.072;14.474;2023-06-14T14:05:08;4.30;;;3.40;;
44606;SDS011;30315;46.072;14.474;2023-06-14T14:07:35;3.63;;;3.20;;
44606;SDS011;30315;46.072;14.474;2023-06-14T14:10:02;3.33;;;3.13;;
44606;SDS011;30315;46.072;14.474;2023-06-14T14:12:30;3.33;;;3.13;;
44606;SDS011;30315;46.072;14.474;2023-06-14T14:14:57;3.17;;;2.97;;
44606;SDS011;30315;46.072;14.474;2023-06-14T14:17:24;3.95;;;3.53;;
44606;SDS011;30315;46.072;14.474;2023-06-14T14:19:51;3.33;;;3.10;;
44606;SDS011;30315;46.072;14.474;2023-06-14T14:22:18;4.05;;;3.75;;
44606;SDS011;30315;46.072;14.474;2023-06-14T14:24:45;3.72;;;3.42;;
44606;SDS011;30315;46.072;14.474;2023-06-14T14:27:13;3.95;;;3.53;;
44606;SDS011;30315;46.072;14.474;2023-06-14T14:29:40;4.50;;;3.00;;
44606;SDS011;30315;46.072;14.474;2023-06-14T14:32:07;3.50;;;3.20;;
44606;SDS011;30315;46.072;14.474;2023-06-14T14:34:36;3.63;;;3.35;;
44606;SDS011;30315;46.072;14.474;2023-06-14T14:37:03;3.35;;;3.15;;
44606;SDS011;30315;46.072;14.474;2023-06-14T14:39:31;3.20;;;3.00;;
44606;SDS011;30315;46.072;14.474;2023-06-14T14:41:58;3.22;;;2.95;;
44606;SDS011;30315;46.072;14.474;2023-06-14T14:44:25;7.20;;;3.08;;
44606;SDS011;30315;46.072;14.474;2023-06-14T14:46:52;6.97;;;3.20;;
44606;SDS011;30315;46.072;14.474;2023-06-14T14:49:19;7.22;;;3.25;;
44606;SDS011;30315;46.072;14.474;2023-06-14T14:51:46;3.63;;;2.90;;
44606;SDS011;30315;46.072;14.474;2023-06-14T14:54:13;4.45;;;3.20;;
44606;SDS011;30315;46.072;14.474;2023-06-14T14:56:40;3.33;;;3.00;;
44606;SDS011;30315;46.072;14.474;2023-06-14T14:59:07;3.42;;;3.17;;
44606;SDS011;30315;46.072;14.474;2023-06-14T15:01:34;4.10;;;3.20;;
44606;SDS011;30315;46.072;14.474;2023-06-14T15:04:01;4.25;;;2.85;;
44606;SDS011;30315;46.072;14.474;2023-06-14T15:06:28;3.83;;;3.30;;
44606;SDS011;30315;46.072;14.474;2023-06-14T15:08:55;3.10;;;2.90;;
44606;SDS011;30315;46.072;14.474;2023-06-14T15:11:23;4.80;;;2.78;;
44606;SDS011;30315;46.072;14.474;2023-06-14T15:13:50;2.95;;;2.75;;
44606;SDS011;30315;46.072;14.474;2023-06-14T15:16:17;3.38;;;3.17;;
44606;SDS011;30315;46.072;14.474;2023-06-14T15:18:44;3.95;;;3.55;;
44606;SDS011;30315;46.072;14.474;2023-06-14T15:21:11;4.72;;;2.97;;
44606;SDS011;30315;46.072;14.474;2023-06-14T15:23:39;3.45;;;3.15;;
44606;SDS011;30315;46.072;14.474;2023-06-14T15:26:06;3.80;;;3.45;;